Time;durP1;ratioP1;P1;durP2;ratioP2;P2;SDS_P1;SDS_P2;PMS_P1;PMS_P2;Temp;Humidity;BMP_temperature;BMP_pressure;BME280_temperature;BME280_humidity;BME280_pressure;Samples;Min_cycle;Max_cycle;Signal;HPM_P1;HPM_P2
2022/05/17 00:02:28;;;;;;;7.85;4.72;;;;;;;15.34;52.82;98671.41;1698889;84;27418;-59
2022/05/17 00:04:59;;;;;;;9.15;4.53;;;;;;;15.32;52.71;98671.75;1697430;84;25716;-57
2022/05/17 00:07:30;;;;;;;8.18;4.42;;;;;;;15.28;52.68;98669.43;1698918;84;25491;-57
2022/05/17 00:10:05;;;;;;;9.18;4.12;;;;;;;15.27;52.85;98667.83;1698293;84;25673;-57
2022/05/17 00:12:29;;;;;;;7.28;4.05;;;;;;;15.23;52.99;98675.98;1697402;84;25740;-56
2022/05/17 00:14:55;;;;;;;11.75;4.50;;;;;;;15.20;53.05;98671.75;1699274;84;27459;-57
2022/05/17 00:17:21;;;;;;;6.50;3.50;;;;;;;15.16;53.21;98672.44;1699023;84;25779;-57
2022/05/17 00:19:47;;;;;;;6.47;4.40;;;;;;;15.17;53.51;98671.88;1699084;84;25641;-56
2022/05/17 00:22:13;;;;;;;7.62;4.47;;;;;;;15.17;53.21;98663.59;1699120;84;25724;-57
2022/05/17 00:24:39;;;;;;;7.55;4.17;;;;;;;15.14;53.52;98663.68;1698852;84;25624;-57
2022/05/17 00:27:06;;;;;;;9.48;4.08;;;;;;;15.11;53.70;98651.95;1699091;84;28294;-56
2022/05/17 00:29:32;;;;;;;7.15;4.15;;;;;;;15.10;53.65;98657.81;1690526;84;25778;-56
2022/05/17 00:31:58;;;;;;;7.58;4.05;;;;;;;15.11;53.70;98653.33;1686403;85;25504;-56
2022/05/17 00:34:24;;;;;;;8.98;4.55;;;;;;;15.08;53.77;98656.77;1686646;85;25916;-58
2022/05/17 00:36:50;;;;;;;7.22;4.17;;;;;;;15.06;53.64;98642.53;1686181;84;25417;-61
2022/05/17 00:39:16;;;;;;;5.78;4.05;;;;;;;15.08;53.48;98649.09;1683185;85;27990;-57
2022/05/17 00:41:42;;;;;;;6.53;4.10;;;;;;;15.05;54.01;98654.14;1686383;85;25861;-58
2022/05/17 00:47:17;;;;;;;10.48;3.90;;;;;;;14.95;53.85;98645.50;1686211;85;25658;-61
2022/05/17 00:50:06;;;;;;;7.25;3.85;;;;;;;14.95;54.02;98644.13;1686264;85;25635;-60
2022/05/17 00:52:53;;;;;;;8.03;5.03;;;;;;;14.80;54.23;98634.79;1686510;85;28318;-60
2022/05/17 00:55:39;;;;;;;4.83;3.05;;;;;;;14.80;54.23;98634.79;1686075;85;25918;-62
2022/05/17 00:58:16;;;;;;;7.12;3.75;;;;;;;14.87;54.07;98637.56;1686662;85;25619;-60
2022/05/17 01:00:51;;;;;;;7.65;4.08;;;;;;;14.74;54.56;98620.17;1686404;85;26567;-60
2022/05/17 01:03:21;;;;;;;5.78;2.92;;;;;;;14.74;54.56;98620.17;1685570;85;25724;-62
2022/05/17 01:05:51;;;;;;;7.12;3.72;;;;;;;14.75;54.61;98630.05;1686688;85;28461;-61
2022/05/17 01:08:19;;;;;;;;;;;;;;;14.72;54.60;98619.70;1688522;85;25868;-61
2022/05/17 01:10:45;;;;;;;9.30;3.87;;;;;;;14.71;54.58;98623.62;1686223;85;25685;-61
2022/05/17 01:15:48;;;;;;;8.18;4.50;;;;;;;14.62;54.16;98619.59;1612993;87;25525;-60
2022/05/17 01:18:14;;;;;;;9.83;3.90;;;;;;;14.62;54.16;98619.59;1612773;89;28228;-61
2022/05/17 01:20:41;;;;;;;8.30;4.12;;;;;;;14.66;54.46;98629.59;1612407;89;25620;-61
2022/05/17 01:23:07;;;;;;;6.83;3.90;;;;;;;14.66;54.29;98619.13;1612766;89;25834;-61
2022/05/17 01:25:34;;;;;;;6.30;3.72;;;;;;;14.64;54.13;98622.79;1612454;89;25803;-61
2022/05/17 01:28:11;;;;;;;5.97;3.62;;;;;;;14.66;54.35;98619.13;1612514;89;25580;-61
2022/05/17 01:30:37;;;;;;;5.85;3.58;;;;;;;14.66;54.23;98622.70;1648312;87;28444;-60
2022/05/17 01:33:04;;;;;;;7.37;3.33;;;;;;;14.65;54.38;98614.77;1618015;87;25705;-60
2022/05/17 01:35:30;;;;;;;5.60;3.62;;;;;;;14.62;54.47;98614.86;1644426;87;25625;-62
2022/05/17 01:37:59;;;;;;;9.10;3.77;;;;;;;14.60;54.38;98611.66;1644367;87;25772;-61
2022/05/17 01:40:26;;;;;;;5.20;3.05;;;;;;;14.57;54.55;98617.03;1644170;87;25527;-61
2022/05/17 01:42:53;;;;;;;7.90;3.60;;;;;;;14.54;54.55;98624.05;1643817;87;27477;-61
2022/05/17 01:45:19;;;;;;;8.18;4.12;;;;;;;14.54;54.43;98615.78;1644333;87;27214;-61
2022/05/17 01:47:45;;;;;;;6.62;3.58;;;;;;;14.52;54.59;98612.55;1644519;87;25620;-61
2022/05/17 01:50:11;;;;;;;5.67;3.47;;;;;;;14.51;54.47;98610.35;1644879;87;25732;-61
2022/05/17 01:52:37;;;;;;;7.33;4.62;;;;;;;14.52;54.56;98613.92;1673061;84;25789;-57
2022/05/17 01:55:05;;;;;;;6.65;3.60;;;;;;;14.48;54.77;98609.66;1701396;84;28218;-56
2022/05/17 01:57:31;;;;;;;6.85;3.85;;;;;;;14.44;54.36;98600.46;1701521;84;25618;-56
2022/05/17 01:59:57;;;;;;;7.10;3.80;;;;;;;14.41;54.76;98593.69;1701442;84;25669;-57
2022/05/17 02:02:23;;;;;;;5.50;2.77;;;;;;;14.41;54.76;98593.69;1701481;84;25806;-57
2022/05/17 02:04:49;;;;;;;9.70;4.10;;;;;;;14.46;54.77;98609.20;1701308;84;25735;-59
2022/05/17 02:07:15;;;;;;;7.65;3.90;;;;;;;14.42;54.68;98598.61;1701464;84;28219;-58
2022/05/17 02:09:41;;;;;;;7.47;3.90;;;;;;;14.41;54.76;98590.93;1701461;84;25582;-60
2022/05/17 02:12:10;;;;;;;7.22;3.60;;;;;;;14.38;54.91;98590.23;1701090;84;25708;-57
2022/05/17 02:14:36;;;;;;;7.53;3.75;;;;;;;14.40;54.84;98589.30;1701467;84;25754;-59
2022/05/17 02:17:03;;;;;;;6.45;4.00;;;;;;;14.33;55.06;98583.55;1701501;84;25642;-59
2022/05/17 02:19:31;;;;;;;8.33;4.15;;;;;;;14.35;54.89;98597.80;1701368;84;27456;-60
2022/05/17 02:21:57;;;;;;;6.55;3.80;;;;;;;14.33;55.09;98588.27;1700903;84;25705;-60
2022/05/17 02:24:23;;;;;;;6.00;3.80;;;;;;;14.33;55.09;98587.69;1701147;84;25505;-56
2022/05/17 02:26:50;;;;;;;6.33;3.67;;;;;;;14.35;55.14;98593.67;1701407;84;25688;-56
2022/05/17 02:29:16;;;;;;;6.55;3.90;;;;;;;14.30;55.42;98596.07;1695612;84;25724;-60
2022/05/17 02:31:42;;;;;;;6.58;4.10;;;;;;;14.27;55.39;98591.80;1678983;85;28307;-60
2022/05/17 02:34:08;;;;;;;5.95;3.17;;;;;;;14.18;55.57;98578.11;1679177;85;25717;-58
2022/05/17 02:36:34;;;;;;;6.70;3.42;;;;;;;14.18;55.57;98578.11;1680958;85;25627;-56
2022/05/17 02:39:00;;;;;;;6.50;3.85;;;;;;;14.25;55.58;98596.87;1681078;85;25714;-57
2022/05/17 02:41:26;;;;;;;6.58;4.20;;;;;;;14.18;55.46;98600.98;1681145;85;25599;-58
2022/05/17 02:43:53;;;;;;;6.37;3.58;;;;;;;14.17;55.56;98597.19;1680923;85;28317;-57
2022/05/17 02:46:20;;;;;;;8.98;4.17;;;;;;;14.13;55.89;98597.05;1680820;85;25572;-56
2022/05/17 02:48:46;;;;;;;8.15;4.03;;;;;;;14.13;55.74;98595.67;1680668;85;25624;-56
2022/05/17 02:51:17;;;;;;;5.30;3.33;;;;;;;14.12;55.84;98599.58;1680940;85;25777;-57
2022/05/17 02:53:43;;;;;;;7.08;4.00;;;;;;;14.10;56.25;98603.83;1680724;85;25694;-59
2022/05/17 02:56:09;;;;;;;8.90;4.28;;;;;;;14.06;56.20;98606.44;1680909;85;28335;-56
2022/05/17 02:58:37;;;;;;;7.33;4.45;;;;;;;14.06;55.92;98610.58;1680981;85;25674;-57
2022/05/17 03:01:05;;;;;;;5.87;4.00;;;;;;;14.06;55.92;98610.58;1680864;85;25635;-59
2022/05/17 03:03:32;;;;;;;10.20;4.37;;;;;;;14.00;56.21;98603.09;1680923;85;25757;-57
2022/05/17 03:05:59;;;;;;;8.85;4.10;;;;;;;14.08;56.22;98618.50;1680650;85;25678;-56
2022/05/17 03:08:25;;;;;;;9.58;4.15;;;;;;;14.07;56.16;98623.79;1681087;85;27407;-58
2022/05/17 03:10:51;;;;;;;6.97;4.08;;;;;;;14.04;56.18;98629.38;1680966;85;25435;-57
2022/05/17 03:13:16;;;;;;;10.23;4.70;;;;;;;14.07;56.19;98622.41;1680965;85;25528;-56
2022/05/17 03:15:43;;;;;;;11.63;4.28;;;;;;;14.09;56.03;98620.92;1681034;85;26549;-59
2022/05/17 03:18:08;;;;;;;7.10;4.40;;;;;;;14.13;56.25;98628.73;1681246;85;25686;-57
2022/05/17 03:20:35;;;;;;;11.40;4.78;;;;;;;14.13;55.99;98638.97;1680874;85;27445;-56
2022/05/17 03:23:01;;;;;;;6.85;4.35;;;;;;;14.15;55.99;98649.06;1680811;85;25441;-57
2022/05/17 03:25:27;;;;;;;7.10;4.58;;;;;;;14.15;56.04;98643.55;1680977;85;25517;-57
2022/05/17 03:27:55;;;;;;;8.85;4.33;;;;;;;14.15;56.16;98647.13;1680993;85;25712;-60
2022/05/17 03:30:22;;;;;;;8.90;4.65;;;;;;;14.13;56.22;98631.48;1680781;84;25453;-60
2022/05/17 03:32:48;;;;;;;10.05;4.90;;;;;;;14.12;56.33;98636.78;1680869;85;27514;-59
2022/05/17 03:35:13;;;;;;;9.80;5.30;;;;;;;14.15;56.28;98642.17;1680966;85;25914;-60
2022/05/17 03:37:39;;;;;;;8.48;4.80;;;;;;;14.17;56.46;98642.06;1681043;85;25612;-59
2022/05/17 03:40:11;;;;;;;8.35;4.10;;;;;;;14.19;56.38;98636.22;1680898;85;25764;-57
2022/05/17 03:42:37;;;;;;;8.75;4.35;;;;;;;14.18;56.90;98631.30;1677170;83;25853;-60
2022/05/17 03:45:06;;;;;;;7.10;4.53;;;;;;;14.09;56.59;98637.45;1680903;85;27568;-59
2022/05/17 03:47:33;;;;;;;6.47;4.42;;;;;;;14.07;56.81;98638.95;1680603;85;25687;-60
2022/05/17 03:49:59;;;;;;;8.80;3.98;;;;;;;14.03;57.31;98645.13;1680649;85;25453;-60
2022/05/17 03:52:31;;;;;;;6.90;4.50;;;;;;;13.93;57.69;98638.63;1681067;85;25693;-60
2022/05/17 03:55:13;;;;;;;6.78;4.05;;;;;;;13.93;57.60;98638.06;1680969;85;25636;-60
2022/05/17 03:57:43;;;;;;;;;;;;;;;13.93;57.85;98638.06;1682710;85;25755;-60
2022/05/17 04:00:18;;;;;;;7.15;4.00;;;;;;;13.96;57.52;98642.09;1680907;85;25765;-60
2022/05/17 04:02:44;;;;;;;7.35;4.40;;;;;;;13.96;57.52;98642.09;1680955;85;25704;-60
2022/05/17 04:05:11;;;;;;;7.97;4.58;;;;;;;13.98;57.70;98651.39;1681084;85;25705;-60
2022/05/17 04:07:38;;;;;;;8.15;4.30;;;;;;;14.03;57.94;98649.27;1681183;85;25512;-60
2022/05/17 04:10:07;;;;;;;7.95;5.00;;;;;;;14.11;57.62;98650.33;1680962;85;27471;-59
2022/05/17 04:12:33;;;;;;;8.05;4.45;;;;;;;14.11;58.12;98645.38;1681163;85;25687;-60
2022/05/17 04:14:59;;;;;;;11.05;4.55;;;;;;;14.07;58.14;98639.73;1681018;85;25617;-60
2022/05/17 04:17:26;;;;;;;7.47;4.42;;;;;;;14.05;58.02;98643.41;1681249;85;25713;-60
2022/05/17 04:19:52;;;;;;;8.23;4.22;;;;;;;14.05;58.03;98647.55;1681164;85;25694;-60
2022/05/17 04:22:18;;;;;;;9.93;4.45;;;;;;;13.97;57.83;98645.66;1680976;85;27671;-60
2022/05/17 04:24:45;;;;;;;8.18;4.28;;;;;;;14.01;58.28;98651.54;1681033;85;25824;-59
2022/05/17 04:27:14;;;;;;;6.97;3.77;;;;;;;14.02;58.18;98650.97;1680993;85;25733;-61
2022/05/17 04:29:41;;;;;;;8.43;4.10;;;;;;;14.01;57.97;98649.34;1680637;84;26623;-61
2022/05/17 04:32:09;;;;;;;7.53;3.95;;;;;;;14.00;58.05;98652.69;1681050;85;25666;-61
2022/05/17 04:34:35;;;;;;;10.75;4.20;;;;;;;14.04;58.18;98655.56;1681329;85;27425;-60
2022/05/17 04:37:01;;;;;;;8.25;3.72;;;;;;;14.03;58.17;98649.27;1681060;85;25912;-57
2022/05/17 04:39:27;;;;;;;6.87;3.83;;;;;;;14.02;58.61;98649.01;1676945;85;26581;-55
2022/05/17 04:41:52;;;;;;;7.62;3.80;;;;;;;14.03;58.28;98645.13;1680982;85;25791;-55
2022/05/17 04:44:18;;;;;;;7.72;4.00;;;;;;;14.10;58.16;98656.18;1681030;85;25449;-56
2022/05/17 04:46:44;;;;;;;7.65;4.08;;;;;;;14.23;58.14;98655.64;1681256;85;27535;-59
2022/05/17 04:49:10;;;;;;;6.00;3.67;;;;;;;14.28;58.14;98659.58;1681043;85;25832;-60
2022/05/17 04:51:36;;;;;;;8.45;4.55;;;;;;;14.37;57.93;98658.93;1681099;85;25477;-60
2022/05/17 04:54:02;;;;;;;5.30;3.52;;;;;;;14.49;57.65;98661.48;1681209;85;25758;-57
2022/05/17 04:56:29;;;;;;;10.25;4.30;;;;;;;14.57;57.82;98659.78;1681111;85;25502;-57
2022/05/17 04:58:55;;;;;;;7.00;3.55;;;;;;;14.65;57.11;98652.00;1680821;85;27429;-60
2022/05/17 05:01:21;;;;;;;5.55;3.98;;;;;;;14.65;57.11;98652.00;1681321;85;25674;-59
2022/05/17 05:03:48;;;;;;;3.22;1.95;;;;;;;14.68;57.30;98656.80;1681093;85;25442;-60
2022/05/17 05:06:14;;;;;;;7.90;3.67;;;;;;;14.66;57.06;98656.36;1681036;85;25776;-59
2022/05/17 05:08:40;;;;;;;9.58;3.90;;;;;;;14.70;57.25;98649.56;1681402;85;25457;-58
2022/05/17 05:11:06;;;;;;;8.10;3.27;;;;;;;14.78;57.10;98653.66;1680927;85;27442;-58
2022/05/17 05:13:32;;;;;;;6.95;3.95;;;;;;;14.90;57.07;98657.00;1680615;85;25695;-56
2022/05/17 05:15:59;;;;;;;5.45;3.05;;;;;;;14.90;56.86;98653.43;1681098;85;25494;-57
2022/05/17 05:18:25;;;;;;;6.30;3.70;;;;;;;14.82;57.15;98653.76;1681216;85;25759;-56
2022/05/17 05:21:11;;;;;;;8.10;4.65;;;;;;;14.82;57.15;98653.76;1680869;85;25603;-57
2022/05/17 05:23:40;;;;;;;8.25;4.33;;;;;;;14.84;57.15;98656.18;1680520;85;27519;-57
2022/05/17 05:26:08;;;;;;;6.28;4.08;;;;;;;14.87;57.19;98654.93;1680959;85;25440;-57
2022/05/17 05:28:36;;;;;;;23.27;5.40;;;;;;;14.90;57.04;98657.56;1681179;85;25715;-57
2022/05/17 05:31:03;;;;;;;6.00;3.60;;;;;;;14.90;57.04;98657.56;1687946;84;25866;-56
2022/05/17 05:33:31;;;;;;;9.88;3.95;;;;;;;15.00;56.92;98667.37;1686631;85;25600;-57
2022/05/17 05:35:58;;;;;;;8.40;4.08;;;;;;;15.00;56.92;98667.37;1685617;85;28298;-60
2022/05/17 05:38:24;;;;;;;8.98;3.77;;;;;;;15.03;57.08;98667.47;1684211;84;26004;-57
2022/05/17 05:40:50;;;;;;;11.15;4.42;;;;;;;15.03;57.49;98666.68;1686319;85;25682;-57
2022/05/17 05:43:18;;;;;;;6.95;4.30;;;;;;;15.00;57.44;98663.23;1686375;85;26494;-57
2022/05/17 05:48:33;;;;;;;6.20;3.85;;;;;;;15.29;57.45;98663.56;1592150;90;27595;-57
2022/05/17 05:51:00;;;;;;;6.62;4.12;;;;;;;15.32;57.05;98668.98;1592147;90;25576;-57
2022/05/17 05:53:25;;;;;;;10.05;4.53;;;;;;;15.35;57.37;98670.25;1592545;90;25535;-57
2022/05/17 05:56:01;;;;;;;6.42;4.10;;;;;;;15.40;57.40;98670.81;1592308;90;25821;-57
2022/05/17 05:58:22;;;;;;;7.63;4.33;;;;;;;15.39;57.23;98669.77;1591482;90;25734;-58
2022/05/17 06:00:48;;;;;;;5.12;3.08;;;;;;;15.37;57.18;98670.72;1592667;90;27615;-56
2022/05/17 06:03:14;;;;;;;8.63;4.33;;;;;;;15.33;57.16;98669.77;1592436;90;25761;-57
2022/05/17 06:05:41;;;;;;;8.40;4.42;;;;;;;15.28;57.48;98674.39;1592382;90;25815;-58
2022/05/17 06:08:13;;;;;;;6.05;4.12;;;;;;;15.37;57.41;98680.38;1592529;90;25775;-60
2022/05/17 06:10:43;;;;;;;6.47;4.40;;;;;;;15.42;56.97;98676.80;1592387;90;25814;-60
2022/05/17 06:13:13;;;;;;;9.30;4.60;;;;;;;15.44;56.99;98672.31;1592507;90;27700;-61
2022/05/17 06:15:41;;;;;;;10.20;4.40;;;;;;;15.47;57.22;98673.57;1592292;90;25958;-60
2022/05/17 06:18:10;;;;;;;9.25;4.30;;;;;;;15.50;56.89;98675.08;1592457;90;25597;-62
2022/05/17 06:20:38;;;;;;;5.95;3.87;;;;;;;15.62;56.95;98669.29;1592469;90;25724;-58
2022/05/17 06:23:07;;;;;;;11.12;4.40;;;;;;;15.83;56.75;98670.52;1592316;90;25765;-57
2022/05/17 06:25:34;;;;;;;8.40;4.53;;;;;;;15.99;56.19;98669.82;1600409;89;27482;-60
2022/05/17 06:28:01;;;;;;;8.68;4.70;;;;;;;16.12;56.32;98667.23;1610396;88;25628;-60
2022/05/17 06:30:28;;;;;;;6.33;4.20;;;;;;;16.39;55.75;98670.38;1610211;88;25752;-59
2022/05/17 06:32:55;;;;;;;9.60;4.37;;;;;;;16.80;55.67;98670.27;1606770;89;25869;-61
2022/05/17 06:35:21;;;;;;;6.30;4.62;;;;;;;17.11;54.73;98668.47;1610609;89;25700;-60
2022/05/17 06:37:48;;;;;;;10.30;4.22;;;;;;;17.39;54.15;98675.27;1610173;88;27501;-61
2022/05/17 06:40:15;;;;;;;12.05;5.08;;;;;;;17.65;52.86;98680.80;1610323;88;25677;-62
2022/05/17 06:42:42;;;;;;;7.67;4.37;;;;;;;17.63;52.98;98676.80;1610774;89;25649;-61
2022/05/17 06:45:11;;;;;;;11.25;4.97;;;;;;;17.70;53.66;98681.71;1610326;88;25717;-60
2022/05/17 06:47:40;;;;;;;8.15;4.70;;;;;;;17.96;52.09;98681.08;1610068;87;25634;-61
2022/05/17 06:50:08;;;;;;;10.00;5.22;;;;;;;18.16;52.52;98682.50;1609903;89;28286;-61
2022/05/17 06:52:34;;;;;;;12.50;5.67;;;;;;;18.42;51.64;98686.58;1643750;87;25723;-61
2022/05/17 06:55:01;;;;;;;8.80;5.25;;;;;;;18.49;51.24;98678.42;1643688;86;25733;-61
2022/05/17 06:57:27;;;;;;;10.00;4.70;;;;;;;18.62;50.84;98681.81;1643508;86;25718;-62
2022/05/17 06:59:54;;;;;;;6.75;4.85;;;;;;;18.69;51.17;98679.17;1643936;86;25733;-61
2022/05/17 07:02:20;;;;;;;13.95;6.12;;;;;;;18.87;51.09;98673.72;1643799;86;27379;-62
2022/05/17 07:04:52;;;;;;;12.13;6.65;;;;;;;19.03;51.04;98673.63;1643552;87;27216;-62
2022/05/17 07:07:18;;;;;;;13.40;6.97;;;;;;;19.14;49.66;98671.84;1643751;87;25544;-63
2022/05/17 07:13:07;;;;;;;9.40;5.80;;;;;;;19.14;49.64;98675.22;1643870;86;25703;-61
2022/05/17 07:14:59;;;;;;;13.30;6.15;;;;;;;19.13;49.29;98668.86;1643662;87;25681;-61
2022/05/17 07:17:26;;;;;;;11.48;6.83;;;;;;;19.26;49.70;98670.05;1643660;86;25666;-58
2022/05/17 07:19:53;;;;;;;14.28;6.60;;;;;;;19.31;49.21;98665.55;1643712;87;25633;-57
2022/05/17 07:22:25;;;;;;;11.73;6.30;;;;;;;19.33;49.25;98671.55;1643941;87;25750;-59
2022/05/17 07:24:51;;;;;;;14.38;6.95;;;;;;;19.43;48.51;98678.45;1643825;86;25645;-57
2022/05/17 07:27:18;;;;;;;10.43;6.90;;;;;;;19.41;48.70;98673.84;1643853;86;27551;-57
2022/05/17 07:29:44;;;;;;;13.55;7.25;;;;;;;19.41;48.61;98671.07;1643521;87;25748;-58
2022/05/17 07:32:11;;;;;;;13.35;7.40;;;;;;;19.47;49.21;98675.14;1643918;86;25649;-62
2022/05/17 07:34:38;;;;;;;17.45;7.30;;;;;;;19.49;48.14;98674.77;1643897;86;26342;-60
2022/05/17 07:37:05;;;;;;;15.98;7.78;;;;;;;19.57;48.29;98669.51;1643849;85;25412;-60
2022/05/17 07:39:32;;;;;;;16.75;7.85;;;;;;;19.62;47.89;98669.77;1641846;86;27607;-61
2022/05/17 07:41:58;;;;;;;13.00;7.80;;;;;;;19.64;47.92;98672.41;1642477;86;25851;-61
2022/05/17 07:44:25;;;;;;;17.52;7.72;;;;;;;19.75;47.96;98663.41;1643964;87;25502;-59
2022/05/17 07:46:51;;;;;;;15.70;7.70;;;;;;;19.85;48.77;98668.89;1643732;86;25845;-58
2022/05/17 07:49:18;;;;;;;14.63;7.85;;;;;;;19.83;49.54;98665.71;1644299;86;25642;-58
2022/05/17 07:51:45;;;;;;;13.80;7.22;;;;;;;19.82;48.11;98670.45;1644354;86;27574;-59
2022/05/17 07:54:11;;;;;;;13.48;7.00;;;;;;;19.84;48.50;98665.34;1644183;86;25521;-59
2022/05/17 07:56:38;;;;;;;17.50;8.48;;;;;;;19.90;48.35;98668.58;1644444;87;25193;-58
2022/05/17 07:59:04;;;;;;;14.43;7.60;;;;;;;20.05;47.97;98671.80;1644180;86;25783;-59
2022/05/17 08:01:31;;;;;;;17.98;8.48;;;;;;;20.14;48.16;98670.11;1644544;86;25519;-59
2022/05/17 08:03:58;;;;;;;17.12;7.58;;;;;;;20.22;48.39;98675.17;1644404;87;27422;-59
2022/05/17 08:06:25;;;;;;;19.98;8.30;;;;;;;20.26;48.05;98673.22;1644242;86;25716;-58
2022/05/17 08:08:52;;;;;;;16.67;8.23;;;;;;;20.37;49.02;98667.79;1644468;86;25605;-58
2022/05/17 08:11:18;;;;;;;15.75;8.15;;;;;;;20.40;47.32;98672.59;1644378;87;25897;-58
2022/05/17 08:13:46;;;;;;;19.48;8.85;;;;;;;20.43;47.06;98672.41;1644537;86;25645;-58
2022/05/17 08:16:12;;;;;;;14.95;7.97;;;;;;;20.35;48.08;98681.87;1644187;86;27444;-59
2022/05/17 08:18:39;;;;;;;14.63;8.35;;;;;;;20.35;47.37;98679.09;1644106;87;27211;-58
2022/05/17 08:21:06;;;;;;;17.00;8.53;;;;;;;20.48;48.67;98674.06;1644408;86;25443;-58
2022/05/17 08:23:32;;;;;;;20.30;8.93;;;;;;;20.44;46.66;98671.25;1644706;86;26163;-58
2022/05/17 08:28:44;;;;;;;14.47;8.05;;;;;;;20.91;46.75;98677.33;1644173;87;27479;-58
2022/05/17 08:31:11;;;;;;;17.82;8.03;;;;;;;21.28;46.09;98670.08;1644457;87;25763;-59
2022/05/17 08:33:38;;;;;;;16.12;7.53;;;;;;;21.56;43.92;98666.48;1644237;86;25641;-58
2022/05/17 08:36:12;;;;;;;12.33;6.87;;;;;;;21.64;44.79;98672.30;1644289;87;25960;-58
2022/05/17 08:38:46;;;;;;;14.70;8.00;;;;;;;21.86;44.60;98678.03;1644227;86;25697;-59
2022/05/17 08:41:26;;;;;;;13.93;7.42;;;;;;;22.09;44.79;98680.32;1644622;87;28210;-58
2022/05/17 08:44:04;;;;;;;18.00;7.40;;;;;;;22.23;43.82;98682.37;1644553;87;25701;-58
2022/05/17 08:46:52;;;;;;;11.88;7.45;;;;;;;22.17;43.71;98681.97;1642769;86;25694;-58
2022/05/17 08:49:33;;;;;;;15.10;7.08;;;;;;;22.05;43.72;98685.91;1595198;89;25656;-58
2022/05/17 08:52:14;;;;;;;13.98;7.90;;;;;;;22.04;43.91;98680.09;1606142;89;25507;-62
2022/05/17 08:54:51;;;;;;;15.15;7.55;;;;;;;21.91;44.13;98675.47;1606481;89;27679;-62
2022/05/17 08:57:35;;;;;;;15.95;7.35;;;;;;;22.03;45.03;98679.91;1605871;89;25635;-59
2022/05/17 09:00:19;;;;;;;13.43;7.22;;;;;;;22.11;44.16;98676.55;1606114;89;25655;-62
2022/05/17 09:02:53;;;;;;;13.55;6.65;;;;;;;22.04;43.57;98677.31;1606042;89;25981;-61
2022/05/17 09:05:30;;;;;;;13.25;6.90;;;;;;;22.10;44.02;98675.74;1606123;89;25599;-61
2022/05/17 09:08:26;;;;;;;16.23;6.50;;;;;;;22.02;44.08;98678.31;1606475;89;28157;-60
2022/05/17 09:11:10;;;;;;;12.47;6.17;;;;;;;21.85;43.81;98677.84;1605938;89;27169;-62
2022/05/17 09:13:45;;;;;;;11.93;6.05;;;;;;;21.81;43.86;98681.18;1593017;89;25696;-61
2022/05/17 09:16:13;;;;;;;12.37;5.83;;;;;;;21.93;43.32;98682.25;1599260;89;26196;-62
2022/05/17 09:18:44;;;;;;;12.93;5.95;;;;;;;21.88;43.50;98684.00;1606287;89;25689;-62
2022/05/17 09:21:28;;;;;;;9.10;5.80;;;;;;;21.99;43.56;98684.06;1606358;89;27373;-60
2022/05/17 09:24:00;;;;;;;9.30;5.50;;;;;;;22.23;43.12;98679.59;1595129;89;26159;-59
2022/05/17 09:26:28;;;;;;;10.70;6.22;;;;;;;22.22;42.04;98688.55;1605121;89;25658;-57
2022/05/17 09:29:21;;;;;;;11.93;6.12;;;;;;;21.96;42.86;98687.63;1606322;89;25981;-63
2022/05/17 09:31:55;;;;;;;10.93;6.90;;;;;;;21.99;43.01;98683.28;1606295;89;25476;-62
2022/05/17 09:34:30;;;;;;;16.87;8.15;;;;;;;22.09;43.23;98687.30;1606126;89;27659;-62
2022/05/17 09:37:00;;;;;;;12.63;7.50;;;;;;;22.09;43.54;98685.91;1606452;89;25656;-62
2022/05/17 09:39:29;;;;;;;12.88;6.83;;;;;;;22.05;43.06;98687.30;1605901;89;25488;-62
2022/05/17 09:41:57;;;;;;;13.65;6.45;;;;;;;22.01;43.79;98687.27;1606010;89;25807;-61
2022/05/17 09:44:27;;;;;;;14.40;6.33;;;;;;;22.15;43.61;98682.94;1583151;89;25485;-61
2022/05/17 09:47:35;;;;;;;10.65;5.70;;;;;;;22.15;43.22;98684.34;1606176;88;27417;-62
2022/05/17 09:53:14;;;;;;;11.08;6.67;;;;;;;21.97;43.96;98689.84;1604799;89;25733;-62
2022/05/17 09:55:43;;;;;;;10.82;6.37;;;;;;;22.05;44.67;98690.87;1604766;88;25636;-62
2022/05/17 09:58:22;;;;;;;12.33;7.67;;;;;;;22.13;44.60;98690.92;1605036;88;25634;-62
2022/05/17 10:00:51;;;;;;;10.05;6.00;;;;;;;22.10;44.19;98690.31;1603787;89;27419;-63
2022/05/17 10:03:34;;;;;;;10.38;5.40;;;;;;;22.21;44.21;98693.13;1604553;89;25662;-62
2022/05/17 10:06:06;;;;;;;9.90;5.37;;;;;;;22.26;44.80;98689.38;1603974;89;25448;-60
2022/05/17 10:09:04;;;;;;;10.20;5.67;;;;;;;22.25;44.70;98698.15;1603100;89;26578;-58
2022/05/17 10:12:04;;;;;;;9.65;5.25;;;;;;;22.13;44.28;98695.11;1604989;89;25498;-57
2022/05/17 10:14:58;;;;;;;11.83;5.12;;;;;;;22.06;45.36;98691.68;1581359;89;45748;-59
2022/05/17 10:17:38;;;;;;;8.18;4.20;;;;;;;21.85;45.95;98697.36;1624730;87;25853;-58
2022/05/17 10:20:21;;;;;;;;;;;;;;;21.81;45.02;98692.34;1627917;88;25568;-58
2022/05/17 10:23:08;;;;;;;9.98;4.78;;;;;;;21.67;46.77;98696.61;1625333;88;26527;-60
2022/05/17 10:25:50;;;;;;;10.18;4.80;;;;;;;21.65;46.56;98694.02;1625526;88;25806;-61
2022/05/17 10:28:50;;;;;;;13.00;6.28;;;;;;;21.34;45.75;98698.37;1617656;88;29476;-61
2022/05/17 10:31:33;;;;;;;7.70;5.17;;;;;;;21.18;46.57;98698.05;1607881;89;25584;-59
2022/05/17 10:34:26;;;;;;;8.83;4.95;;;;;;;21.12;47.33;98705.16;1607646;89;25640;-58
2022/05/17 10:37:00;;;;;;;8.33;4.80;;;;;;;21.06;47.09;98702.52;1606214;89;25811;-58
2022/05/17 10:39:35;;;;;;;8.93;5.00;;;;;;;21.09;47.01;98706.50;1607957;89;25755;-58
2022/05/17 10:42:03;;;;;;;14.75;5.30;;;;;;;20.93;47.26;98701.40;1607403;89;27449;-58
2022/05/17 10:44:40;;;;;;;11.30;5.05;;;;;;;20.80;47.71;98708.41;1607872;89;25571;-58
2022/05/17 10:47:20;;;;;;;9.58;5.10;;;;;;;20.59;47.32;98708.98;1605111;89;25782;-58
2022/05/17 10:50:13;;;;;;;9.03;5.00;;;;;;;20.48;49.88;98718.02;1606751;89;27748;-57
2022/05/17 10:53:06;;;;;;;8.00;5.37;;;;;;;20.55;50.15;98715.30;1607853;89;25654;-58
2022/05/17 10:56:07;;;;;;;11.60;5.70;;;;;;;20.50;50.25;98714.27;1638357;87;27782;-58
2022/05/17 10:59:20;;;;;;;10.35;5.65;;;;;;;20.42;51.55;98713.38;1640041;87;25821;-57
2022/05/17 11:02:38;;;;;;;9.30;5.05;;;;;;;20.35;49.58;98716.05;1640002;87;25780;-57
2022/05/17 11:05:24;;;;;;;10.50;5.87;;;;;;;20.02;49.67;98719.83;1639885;87;25783;-57
2022/05/17 11:07:56;;;;;;;13.00;6.08;;;;;;;20.03;52.16;98722.00;1647318;85;25603;-58
2022/05/17 11:10:41;;;;;;;10.55;6.22;;;;;;;20.08;51.07;98720.87;1658819;86;27613;-57
2022/05/17 11:13:36;;;;;;;13.35;6.67;;;;;;;19.95;52.04;98718.32;1658727;86;25670;-58
2022/05/17 11:16:20;;;;;;;11.65;7.30;;;;;;;19.90;51.16;98720.84;1648821;86;25466;-57
2022/05/17 11:18:52;;;;;;;17.32;9.70;;;;;;;19.91;53.65;98712.70;1633928;87;25796;-57
2022/05/17 11:21:44;;;;;;;28.87;14.65;;;;;;;19.93;53.75;98713.72;1634192;87;25608;-57
2022/05/17 11:24:34;;;;;;;19.52;11.70;;;;;;;19.94;54.05;98722.26;1649270;87;27443;-57
2022/05/17 11:27:48;;;;;;;14.00;7.28;;;;;;;19.91;54.49;98721.04;1642942;87;25722;-58
2022/05/17 11:30:26;;;;;;;7.92;5.75;;;;;;;19.92;53.52;98724.02;1649157;87;25679;-58
2022/05/17 11:33:26;;;;;;;9.58;5.53;;;;;;;19.76;51.97;98720.03;1648985;87;25680;-57
2022/05/17 11:35:57;;;;;;;10.98;5.62;;;;;;;19.80;53.77;98718.10;1649107;87;25739;-60
2022/05/17 11:38:46;;;;;;;11.50;6.22;;;;;;;19.85;53.94;98720.34;1649573;87;27478;-61
2022/05/17 11:41:21;;;;;;;9.50;5.37;;;;;;;19.88;56.11;98722.38;1648956;87;25742;-62
2022/05/17 11:44:16;;;;;;;13.85;5.80;;;;;;;19.64;52.85;98724.42;1648868;87;25419;-61
2022/05/17 11:46:50;;;;;;;8.80;6.42;;;;;;;19.56;54.73;98727.67;1649074;87;26648;-61
2022/05/17 11:49:28;;;;;;;8.55;6.47;;;;;;;19.44;53.78;98732.84;1649920;87;25658;-62
2022/05/17 11:52:03;;;;;;;7.53;5.65;;;;;;;19.34;54.64;98737.04;1649482;87;28511;-61
2022/05/17 11:54:45;;;;;;;12.23;6.15;;;;;;;19.24;55.58;98741.84;1650344;86;25494;-62
2022/05/17 11:57:19;;;;;;;12.53;5.80;;;;;;;19.20;56.37;98745.93;1649289;87;25654;-62
2022/05/17 12:00:04;;;;;;;9.98;6.12;;;;;;;19.20;55.89;98745.15;1647342;87;27834;-62
2022/05/17 12:02:47;;;;;;;10.88;6.50;;;;;;;19.19;56.08;98745.72;1649184;87;25776;-62
2022/05/17 12:05:38;;;;;;;12.30;6.50;;;;;;;19.11;58.45;98745.40;1650180;87;27372;-62
2022/05/17 12:08:35;;;;;;;10.70;6.70;;;;;;;18.96;61.98;98752.61;1649710;87;25905;-59
2022/05/17 12:11:30;;;;;;;10.28;6.20;;;;;;;18.83;60.04;98754.19;1649823;87;25625;-60